sensor_id;sensor_type;location;lat;lon;timestamp;P1;durP1;ratioP1;P2;durP2;ratioP2
37955;SDS011;23776;51.592;7.180;2022-07-29T00:01:39;7.05;;;1.20;;
37955;SDS011;23776;51.592;7.180;2022-07-29T00:04:05;4.15;;;1.08;;
37955;SDS011;23776;51.592;7.180;2022-07-29T00:06:30;6.28;;;1.35;;
37955;SDS011;23776;51.592;7.180;2022-07-29T00:08:56;3.50;;;1.30;;
37955;SDS011;23776;51.592;7.180;2022-07-29T00:11:22;9.05;;;1.20;;
37955;SDS011;23776;51.592;7.180;2022-07-29T00:13:47;2.58;;;1.17;;
37955;SDS011;23776;51.592;7.180;2022-07-29T00:16:13;4.18;;;1.30;;
37955;SDS011;23776;51.592;7.180;2022-07-29T00:18:38;7.18;;;1.42;;
37955;SDS011;23776;51.592;7.180;2022-07-29T00:21:04;2.58;;;1.08;;
37955;SDS011;23776;51.592;7.180;2022-07-29T00:23:30;5.13;;;1.30;;
37955;SDS011;23776;51.592;7.180;2022-07-29T00:25:55;2.97;;;1.00;;
37955;SDS011;23776;51.592;7.180;2022-07-29T00:28:21;5.38;;;1.77;;
37955;SDS011;23776;51.592;7.180;2022-07-29T00:30:46;6.25;;;2.15;;
37955;SDS011;23776;51.592;7.180;2022-07-29T00:33:12;8.10;;;1.30;;
37955;SDS011;23776;51.592;7.180;2022-07-29T00:35:38;2.47;;;0.95;;
37955;SDS011;23776;51.592;7.180;2022-07-29T00:38:13;4.38;;;1.20;;
37955;SDS011;23776;51.592;7.180;2022-07-29T00:40:40;3.45;;;0.85;;
37955;SDS011;23776;51.592;7.180;2022-07-29T00:43:06;4.53;;;1.00;;
37955;SDS011;23776;51.592;7.180;2022-07-29T00:45:32;4.53;;;1.15;;
37955;SDS011;23776;51.592;7.180;2022-07-29T00:47:57;6.75;;;1.63;;
37955;SDS011;23776;51.592;7.180;2022-07-29T00:50:23;6.55;;;1.42;;
37955;SDS011;23776;51.592;7.180;2022-07-29T00:52:49;5.85;;;1.13;;
37955;SDS011;23776;51.592;7.180;2022-07-29T00:55:17;5.47;;;1.10;;
37955;SDS011;23776;51.592;7.180;2022-07-29T00:57:43;5.82;;;1.30;;
37955;SDS011;23776;51.592;7.180;2022-07-29T01:00:10;2.30;;;1.13;;
37955;SDS011;23776;51.592;7.180;2022-07-29T01:02:39;4.38;;;1.10;;
37955;SDS011;23776;51.592;7.180;2022-07-29T01:05:04;2.42;;;1.10;;
37955;SDS011;23776;51.592;7.180;2022-07-29T01:07:31;2.33;;;1.17;;
37955;SDS011;23776;51.592;7.180;2022-07-29T01:10:03;3.03;;;1.17;;
37955;SDS011;23776;51.592;7.180;2022-07-29T01:12:30;8.35;;;1.70;;
37955;SDS011;23776;51.592;7.180;2022-07-29T01:14:59;8.70;;;1.38;;
37955;SDS011;23776;51.592;7.180;2022-07-29T01:17:28;1.50;;;0.90;;
37955;SDS011;23776;51.592;7.180;2022-07-29T01:20:24;4.57;;;1.30;;
37955;SDS011;23776;51.592;7.180;2022-07-29T01:29:05;3.55;;;1.20;;
37955;SDS011;23776;51.592;7.180;2022-07-29T01:32:00;1.92;;;1.13;;
37955;SDS011;23776;51.592;7.180;2022-07-29T01:34:48;2.95;;;1.20;;
37955;SDS011;23776;51.592;7.180;2022-07-29T01:37:19;2.90;;;1.20;;
37955;SDS011;23776;51.592;7.180;2022-07-29T01:39:49;6.28;;;1.38;;
37955;SDS011;23776;51.592;7.180;2022-07-29T01:42:27;4.65;;;1.13;;
37955;SDS011;23776;51.592;7.180;2022-07-29T01:47:23;4.70;;;1.08;;
37955;SDS011;23776;51.592;7.180;2022-07-29T01:49:56;3.03;;;1.20;;
37955;SDS011;23776;51.592;7.180;2022-07-29T01:52:24;4.97;;;1.42;;
37955;SDS011;23776;51.592;7.180;2022-07-29T01:54:57;3.30;;;1.30;;
37955;SDS011;23776;51.592;7.180;2022-07-29T01:57:26;4.03;;;1.65;;
37955;SDS011;23776;51.592;7.180;2022-07-29T01:59:54;6.15;;;1.27;;
37955;SDS011;23776;51.592;7.180;2022-07-29T02:02:22;3.70;;;1.27;;
37955;SDS011;23776;51.592;7.180;2022-07-29T02:04:49;4.68;;;1.00;;
37955;SDS011;23776;51.592;7.180;2022-07-29T02:07:18;2.60;;;1.27;;
37955;SDS011;23776;51.592;7.180;2022-07-29T02:09:47;4.13;;;1.58;;
37955;SDS011;23776;51.592;7.180;2022-07-29T02:12:14;4.70;;;1.25;;
37955;SDS011;23776;51.592;7.180;2022-07-29T02:14:51;4.20;;;1.20;;
37955;SDS011;23776;51.592;7.180;2022-07-29T02:17:21;5.65;;;1.50;;
37955;SDS011;23776;51.592;7.180;2022-07-29T02:19:50;6.88;;;1.35;;
37955;SDS011;23776;51.592;7.180;2022-07-29T02:22:20;4.82;;;1.58;;
37955;SDS011;23776;51.592;7.180;2022-07-29T02:24:48;2.45;;;1.10;;
37955;SDS011;23776;51.592;7.180;2022-07-29T02:27:15;3.55;;;1.45;;
37955;SDS011;23776;51.592;7.180;2022-07-29T02:29:44;4.70;;;1.15;;
37955;SDS011;23776;51.592;7.180;2022-07-29T02:32:11;4.85;;;1.52;;
37955;SDS011;23776;51.592;7.180;2022-07-29T02:34:39;5.55;;;1.27;;
37955;SDS011;23776;51.592;7.180;2022-07-29T02:37:07;4.65;;;1.23;;
37955;SDS011;23776;51.592;7.180;2022-07-29T02:39:35;3.03;;;1.00;;
37955;SDS011;23776;51.592;7.180;2022-07-29T02:42:07;3.20;;;1.00;;
37955;SDS011;23776;51.592;7.180;2022-07-29T02:44:35;6.70;;;1.33;;
37955;SDS011;23776;51.592;7.180;2022-07-29T02:49:51;2.33;;;1.15;;
37955;SDS011;23776;51.592;7.180;2022-07-29T02:52:43;6.70;;;1.60;;
37955;SDS011;23776;51.592;7.180;2022-07-29T02:57:42;4.70;;;1.13;;
37955;SDS011;23776;51.592;7.180;2022-07-29T03:00:08;4.35;;;1.42;;
37955;SDS011;23776;51.592;7.180;2022-07-29T03:02:36;5.20;;;1.25;;
37955;SDS011;23776;51.592;7.180;2022-07-29T03:05:06;8.70;;;1.95;;
37955;SDS011;23776;51.592;7.180;2022-07-29T03:07:35;2.17;;;1.25;;
37955;SDS011;23776;51.592;7.180;2022-07-29T03:10:03;3.90;;;1.48;;
37955;SDS011;23776;51.592;7.180;2022-07-29T03:12:29;2.08;;;1.10;;
37955;SDS011;23776;51.592;7.180;2022-07-29T03:14:56;4.07;;;1.10;;
37955;SDS011;23776;51.592;7.180;2022-07-29T03:17:22;5.05;;;1.27;;
37955;SDS011;23776;51.592;7.180;2022-07-29T03:19:48;4.47;;;1.38;;
37955;SDS011;23776;51.592;7.180;2022-07-29T03:22:14;5.90;;;1.45;;
37955;SDS011;23776;51.592;7.180;2022-07-29T03:24:40;4.82;;;1.30;;
37955;SDS011;23776;51.592;7.180;2022-07-29T03:27:06;4.15;;;1.65;;
37955;SDS011;23776;51.592;7.180;2022-07-29T03:29:32;7.38;;;1.40;;
37955;SDS011;23776;51.592;7.180;2022-07-29T03:31:58;4.97;;;1.00;;
37955;SDS011;23776;51.592;7.180;2022-07-29T03:34:23;3.45;;;1.02;;
37955;SDS011;23776;51.592;7.180;2022-07-29T03:36:49;3.45;;;1.23;;
37955;SDS011;23776;51.592;7.180;2022-07-29T03:39:16;1.88;;;1.23;;
37955;SDS011;23776;51.592;7.180;2022-07-29T03:41:48;5.00;;;1.20;;
37955;SDS011;23776;51.592;7.180;2022-07-29T03:44:17;4.05;;;1.42;;
37955;SDS011;23776;51.592;7.180;2022-07-29T03:46:44;4.10;;;1.30;;
37955;SDS011;23776;51.592;7.180;2022-07-29T03:49:13;2.28;;;1.15;;
37955;SDS011;23776;51.592;7.180;2022-07-29T03:51:41;3.42;;;1.38;;
37955;SDS011;23776;51.592;7.180;2022-07-29T03:54:07;6.07;;;1.20;;
37955;SDS011;23776;51.592;7.180;2022-07-29T03:56:34;8.35;;;1.42;;
37955;SDS011;23776;51.592;7.180;2022-07-29T03:59:04;2.22;;;1.25;;
37955;SDS011;23776;51.592;7.180;2022-07-29T04:01:32;7.75;;;1.35;;
37955;SDS011;23776;51.592;7.180;2022-07-29T04:03:59;3.88;;;1.23;;
37955;SDS011;23776;51.592;7.180;2022-07-29T04:06:30;2.88;;;1.30;;
37955;SDS011;23776;51.592;7.180;2022-07-29T04:09:06;2.60;;;1.35;;
37955;SDS011;23776;51.592;7.180;2022-07-29T04:11:31;4.75;;;1.38;;
37955;SDS011;23776;51.592;7.180;2022-07-29T04:13:57;6.00;;;1.65;;
37955;SDS011;23776;51.592;7.180;2022-07-29T04:16:23;1.67;;;1.20;;
37955;SDS011;23776;51.592;7.180;2022-07-29T04:18:48;4.90;;;1.45;;
37955;SDS011;23776;51.592;7.180;2022-07-29T04:21:14;4.93;;;1.75;;
37955;SDS011;23776;51.592;7.180;2022-07-29T04:23:39;7.75;;;1.80;;
37955;SDS011;23776;51.592;7.180;2022-07-29T04:26:06;3.55;;;1.20;;
37955;SDS011;23776;51.592;7.180;2022-07-29T04:28:34;4.03;;;1.38;;
37955;SDS011;23776;51.592;7.180;2022-07-29T04:31:00;4.22;;;1.33;;
37955;SDS011;23776;51.592;7.180;2022-07-29T04:33:25;3.88;;;1.58;;
37955;SDS011;23776;51.592;7.180;2022-07-29T04:35:51;3.60;;;1.80;;
37955;SDS011;23776;51.592;7.180;2022-07-29T04:38:16;3.40;;;1.50;;
37955;SDS011;23776;51.592;7.180;2022-07-29T04:40:42;6.40;;;1.70;;
37955;SDS011;23776;51.592;7.180;2022-07-29T04:43:08;3.28;;;1.00;;
37955;SDS011;23776;51.592;7.180;2022-07-29T04:45:33;6.47;;;1.60;;
37955;SDS011;23776;51.592;7.180;2022-07-29T04:47:59;6.32;;;1.90;;
37955;SDS011;23776;51.592;7.180;2022-07-29T04:50:25;4.93;;;1.50;;
37955;SDS011;23776;51.592;7.180;2022-07-29T04:52:51;4.32;;;1.33;;
37955;SDS011;23776;51.592;7.180;2022-07-29T04:55:16;5.78;;;1.80;;
37955;SDS011;23776;51.592;7.180;2022-07-29T04:57:42;5.32;;;1.90;;
37955;SDS011;23776;51.592;7.180;2022-07-29T05:00:08;5.60;;;1.85;;
37955;SDS011;23776;51.592;7.180;2022-07-29T05:02:34;4.80;;;1.67;;
37955;SDS011;23776;51.592;7.180;2022-07-29T05:05:00;4.80;;;1.98;;
37955;SDS011;23776;51.592;7.180;2022-07-29T05:07:25;6.80;;;1.95;;
37955;SDS011;23776;51.592;7.180;2022-07-29T05:09:51;5.50;;;2.00;;
37955;SDS011;23776;51.592;7.180;2022-07-29T05:12:17;3.13;;;1.83;;
37955;SDS011;23776;51.592;7.180;2022-07-29T05:14:43;2.22;;;1.77;;
37955;SDS011;23776;51.592;7.180;2022-07-29T05:17:09;5.15;;;2.80;;
37955;SDS011;23776;51.592;7.180;2022-07-29T05:19:34;9.90;;;2.00;;
37955;SDS011;23776;51.592;7.180;2022-07-29T05:22:00;4.50;;;3.10;;
37955;SDS011;23776;51.592;7.180;2022-07-29T05:24:25;7.20;;;2.13;;
37955;SDS011;23776;51.592;7.180;2022-07-29T05:26:51;4.93;;;1.75;;
37955;SDS011;23776;51.592;7.180;2022-07-29T05:29:17;9.77;;;2.35;;
37955;SDS011;23776;51.592;7.180;2022-07-29T05:31:43;3.70;;;2.17;;
37955;SDS011;23776;51.592;7.180;2022-07-29T05:34:08;4.20;;;2.08;;
37955;SDS011;23776;51.592;7.180;2022-07-29T05:36:34;4.18;;;2.40;;
37955;SDS011;23776;51.592;7.180;2022-07-29T05:38:59;5.47;;;2.17;;
37955;SDS011;23776;51.592;7.180;2022-07-29T05:41:25;7.82;;;2.92;;
37955;SDS011;23776;51.592;7.180;2022-07-29T05:43:51;4.05;;;2.13;;
37955;SDS011;23776;51.592;7.180;2022-07-29T05:46:16;7.00;;;2.72;;
37955;SDS011;23776;51.592;7.180;2022-07-29T05:48:42;5.43;;;2.88;;
37955;SDS011;23776;51.592;7.180;2022-07-29T05:51:08;7.43;;;2.67;;
37955;SDS011;23776;51.592;7.180;2022-07-29T05:53:33;6.13;;;2.63;;
37955;SDS011;23776;51.592;7.180;2022-07-29T05:56:02;3.10;;;2.45;;
37955;SDS011;23776;51.592;7.180;2022-07-29T05:58:29;7.35;;;2.28;;
37955;SDS011;23776;51.592;7.180;2022-07-29T06:00:55;5.95;;;2.38;;
37955;SDS011;23776;51.592;7.180;2022-07-29T06:03:24;4.57;;;2.30;;
37955;SDS011;23776;51.592;7.180;2022-07-29T06:05:50;4.93;;;2.63;;
37955;SDS011;23776;51.592;7.180;2022-07-29T06:08:16;5.75;;;2.65;;
37955;SDS011;23776;51.592;7.180;2022-07-29T06:10:42;3.78;;;2.00;;
37955;SDS011;23776;51.592;7.180;2022-07-29T06:13:08;5.88;;;2.90;;
37955;SDS011;23776;51.592;7.180;2022-07-29T06:15:34;6.90;;;2.53;;
37955;SDS011;23776;51.592;7.180;2022-07-29T06:17:59;5.63;;;2.20;;
37955;SDS011;23776;51.592;7.180;2022-07-29T06:20:25;7.32;;;2.72;;
37955;SDS011;23776;51.592;7.180;2022-07-29T06:22:52;6.35;;;2.53;;
37955;SDS011;23776;51.592;7.180;2022-07-29T06:25:17;5.75;;;2.85;;
37955;SDS011;23776;51.592;7.180;2022-07-29T06:27:43;11.45;;;2.53;;
37955;SDS011;23776;51.592;7.180;2022-07-29T06:30:08;5.88;;;2.38;;
37955;SDS011;23776;51.592;7.180;2022-07-29T06:32:35;6.53;;;1.85;;
37955;SDS011;23776;51.592;7.180;2022-07-29T06:35:00;7.55;;;2.15;;
37955;SDS011;23776;51.592;7.180;2022-07-29T06:37:26;7.43;;;2.20;;
37955;SDS011;23776;51.592;7.180;2022-07-29T06:39:52;5.78;;;1.90;;
37955;SDS011;23776;51.592;7.180;2022-07-29T06:42:37;5.80;;;2.53;;
37955;SDS011;23776;51.592;7.180;2022-07-29T06:45:07;6.80;;;2.10;;
37955;SDS011;23776;51.592;7.180;2022-07-29T06:47:33;4.03;;;2.45;;
37955;SDS011;23776;51.592;7.180;2022-07-29T06:49:59;6.88;;;2.28;;
37955;SDS011;23776;51.592;7.180;2022-07-29T06:52:25;3.58;;;1.85;;
37955;SDS011;23776;51.592;7.180;2022-07-29T06:54:50;4.38;;;1.90;;
37955;SDS011;23776;51.592;7.180;2022-07-29T06:57:16;5.13;;;1.95;;
37955;SDS011;23776;51.592;7.180;2022-07-29T06:59:41;3.60;;;2.08;;
37955;SDS011;23776;51.592;7.180;2022-07-29T07:02:07;4.13;;;1.95;;
37955;SDS011;23776;51.592;7.180;2022-07-29T07:04:32;4.70;;;1.83;;
37955;SDS011;23776;51.592;7.180;2022-07-29T07:06:58;7.88;;;2.03;;
37955;SDS011;23776;51.592;7.180;2022-07-29T07:09:24;5.72;;;2.60;;
37955;SDS011;23776;51.592;7.180;2022-07-29T07:11:50;2.58;;;1.58;;
37955;SDS011;23776;51.592;7.180;2022-07-29T07:14:15;5.63;;;2.03;;
37955;SDS011;23776;51.592;7.180;2022-07-29T07:16:41;5.50;;;1.90;;
37955;SDS011;23776;51.592;7.180;2022-07-29T07:19:07;3.33;;;2.05;;
37955;SDS011;23776;51.592;7.180;2022-07-29T07:21:32;4.57;;;2.28;;
37955;SDS011;23776;51.592;7.180;2022-07-29T07:23:59;8.20;;;2.60;;
37955;SDS011;23776;51.592;7.180;2022-07-29T07:26:24;6.15;;;2.13;;
37955;SDS011;23776;51.592;7.180;2022-07-29T07:28:50;6.07;;;1.95;;
37955;SDS011;23776;51.592;7.180;2022-07-29T07:31:16;6.50;;;2.40;;
37955;SDS011;23776;51.592;7.180;2022-07-29T07:33:42;4.90;;;2.05;;
37955;SDS011;23776;51.592;7.180;2022-07-29T07:36:07;7.50;;;2.20;;
37955;SDS011;23776;51.592;7.180;2022-07-29T07:38:33;6.78;;;2.30;;
37955;SDS011;23776;51.592;7.180;2022-07-29T07:40:59;6.07;;;2.30;;
37955;SDS011;23776;51.592;7.180;2022-07-29T07:43:25;5.22;;;2.35;;
37955;SDS011;23776;51.592;7.180;2022-07-29T07:45:51;7.00;;;2.10;;
37955;SDS011;23776;51.592;7.180;2022-07-29T07:48:16;8.23;;;2.58;;
37955;SDS011;23776;51.592;7.180;2022-07-29T07:50:42;6.70;;;2.00;;
37955;SDS011;23776;51.592;7.180;2022-07-29T07:53:08;4.70;;;2.25;;
37955;SDS011;23776;51.592;7.180;2022-07-29T07:55:38;4.47;;;1.92;;
37955;SDS011;23776;51.592;7.180;2022-07-29T07:58:06;7.70;;;2.17;;
37955;SDS011;23776;51.592;7.180;2022-07-29T08:00:32;3.65;;;1.95;;
37955;SDS011;23776;51.592;7.180;2022-07-29T08:02:58;6.65;;;2.15;;
37955;SDS011;23776;51.592;7.180;2022-07-29T08:05:24;3.47;;;2.00;;
37955;SDS011;23776;51.592;7.180;2022-07-29T08:07:49;4.63;;;2.10;;
37955;SDS011;23776;51.592;7.180;2022-07-29T08:10:15;5.43;;;2.45;;
37955;SDS011;23776;51.592;7.180;2022-07-29T08:13:03;5.63;;;2.60;;
37955;SDS011;23776;51.592;7.180;2022-07-29T08:15:30;5.72;;;2.20;;
37955;SDS011;23776;51.592;7.180;2022-07-29T08:17:56;5.85;;;2.35;;
37955;SDS011;23776;51.592;7.180;2022-07-29T08:20:21;9.82;;;2.15;;
37955;SDS011;23776;51.592;7.180;2022-07-29T08:22:47;6.70;;;2.10;;
37955;SDS011;23776;51.592;7.180;2022-07-29T08:25:12;4.63;;;1.90;;
37955;SDS011;23776;51.592;7.180;2022-07-29T08:27:38;4.85;;;1.88;;
37955;SDS011;23776;51.592;7.180;2022-07-29T08:30:03;8.93;;;2.38;;
37955;SDS011;23776;51.592;7.180;2022-07-29T08:32:29;8.57;;;2.15;;
37955;SDS011;23776;51.592;7.180;2022-07-29T08:34:56;5.63;;;2.63;;
37955;SDS011;23776;51.592;7.180;2022-07-29T08:37:21;5.40;;;2.22;;
37955;SDS011;23776;51.592;7.180;2022-07-29T08:39:47;4.72;;;2.00;;
37955;SDS011;23776;51.592;7.180;2022-07-29T08:42:13;5.78;;;2.20;;
37955;SDS011;23776;51.592;7.180;2022-07-29T08:44:38;4.10;;;2.35;;
37955;SDS011;23776;51.592;7.180;2022-07-29T08:47:04;4.70;;;2.13;;
37955;SDS011;23776;51.592;7.180;2022-07-29T08:49:32;3.22;;;1.88;;
37955;SDS011;23776;51.592;7.180;2022-07-29T08:51:58;6.80;;;2.50;;
37955;SDS011;23776;51.592;7.180;2022-07-29T08:54:25;8.40;;;2.05;;
37955;SDS011;23776;51.592;7.180;2022-07-29T08:56:52;8.27;;;2.33;;
37955;SDS011;23776;51.592;7.180;2022-07-29T08:59:20;5.50;;;1.52;;
37955;SDS011;23776;51.592;7.180;2022-07-29T09:01:47;4.68;;;1.70;;
37955;SDS011;23776;51.592;7.180;2022-07-29T09:04:15;4.25;;;1.85;;
37955;SDS011;23776;51.592;7.180;2022-07-29T09:06:43;3.80;;;1.60;;
37955;SDS011;23776;51.592;7.180;2022-07-29T09:09:10;6.05;;;1.92;;
37955;SDS011;23776;51.592;7.180;2022-07-29T09:11:38;2.58;;;1.75;;
37955;SDS011;23776;51.592;7.180;2022-07-29T09:14:04;6.40;;;1.88;;
37955;SDS011;23776;51.592;7.180;2022-07-29T09:16:46;3.53;;;1.77;;
37955;SDS011;23776;51.592;7.180;2022-07-29T09:21:47;5.93;;;2.08;;
37955;SDS011;23776;51.592;7.180;2022-07-29T09:24:41;4.65;;;2.35;;
37955;SDS011;23776;51.592;7.180;2022-07-29T09:27:07;6.45;;;2.58;;
37955;SDS011;23776;51.592;7.180;2022-07-29T09:29:44;4.47;;;2.40;;
37955;SDS011;23776;51.592;7.180;2022-07-29T09:32:09;3.80;;;2.08;;
37955;SDS011;23776;51.592;7.180;2022-07-29T09:34:35;5.03;;;2.58;;
37955;SDS011;23776;51.592;7.180;2022-07-29T09:37:01;5.07;;;2.20;;
37955;SDS011;23776;51.592;7.180;2022-07-29T09:39:36;8.40;;;3.00;;
37955;SDS011;23776;51.592;7.180;2022-07-29T09:42:05;5.82;;;2.58;;
37955;SDS011;23776;51.592;7.180;2022-07-29T09:44:41;4.95;;;2.08;;
37955;SDS011;23776;51.592;7.180;2022-07-29T09:47:14;4.25;;;2.13;;
37955;SDS011;23776;51.592;7.180;2022-07-29T09:49:51;6.80;;;2.17;;
37955;SDS011;23776;51.592;7.180;2022-07-29T09:52:19;12.00;;;2.63;;
37955;SDS011;23776;51.592;7.180;2022-07-29T09:54:45;5.88;;;2.28;;
37955;SDS011;23776;51.592;7.180;2022-07-29T09:57:25;6.20;;;2.33;;
37955;SDS011;23776;51.592;7.180;2022-07-29T09:59:55;7.82;;;2.65;;
37955;SDS011;23776;51.592;7.180;2022-07-29T10:02:30;5.20;;;2.67;;
37955;SDS011;23776;51.592;7.180;2022-07-29T10:04:57;6.10;;;2.28;;
37955;SDS011;23776;51.592;7.180;2022-07-29T10:07:24;6.45;;;2.58;;
37955;SDS011;23776;51.592;7.180;2022-07-29T10:09:53;11.10;;;3.40;;
37955;SDS011;23776;51.592;7.180;2022-07-29T10:12:20;6.72;;;3.30;;
37955;SDS011;23776;51.592;7.180;2022-07-29T10:14:46;8.30;;;3.35;;
37955;SDS011;23776;51.592;7.180;2022-07-29T10:17:13;13.52;;;3.85;;
37955;SDS011;23776;51.592;7.180;2022-07-29T10:19:39;6.65;;;3.40;;
37955;SDS011;23776;51.592;7.180;2022-07-29T10:22:06;7.38;;;3.33;;
37955;SDS011;23776;51.592;7.180;2022-07-29T10:24:33;11.70;;;4.63;;
37955;SDS011;23776;51.592;7.180;2022-07-29T10:27:01;8.38;;;3.70;;
37955;SDS011;23776;51.592;7.180;2022-07-29T10:29:28;5.05;;;2.72;;
37955;SDS011;23776;51.592;7.180;2022-07-29T10:37:33;6.38;;;3.15;;
37955;SDS011;23776;51.592;7.180;2022-07-29T10:40:13;8.68;;;3.92;;
37955;SDS011;23776;51.592;7.180;2022-07-29T10:43:17;8.73;;;3.55;;
37955;SDS011;23776;51.592;7.180;2022-07-29T10:45:47;6.95;;;3.63;;
37955;SDS011;23776;51.592;7.180;2022-07-29T10:48:14;4.28;;;3.00;;
37955;SDS011;23776;51.592;7.180;2022-07-29T10:56:25;9.20;;;3.80;;
37955;SDS011;23776;51.592;7.180;2022-07-29T10:59:22;7.50;;;3.45;;
37955;SDS011;23776;51.592;7.180;2022-07-29T11:01:51;9.63;;;3.88;;
37955;SDS011;23776;51.592;7.180;2022-07-29T11:07:07;6.80;;;4.03;;
37955;SDS011;23776;51.592;7.180;2022-07-29T11:09:33;9.02;;;3.50;;
37955;SDS011;23776;51.592;7.180;2022-07-29T11:11:59;6.90;;;3.38;;
37955;SDS011;23776;51.592;7.180;2022-07-29T11:17:24;10.27;;;3.30;;
37955;SDS011;23776;51.592;7.180;2022-07-29T11:19:50;5.97;;;3.38;;
37955;SDS011;23776;51.592;7.180;2022-07-29T11:22:37;6.90;;;3.33;;
37955;SDS011;23776;51.592;7.180;2022-07-29T11:25:15;12.80;;;5.20;;
37955;SDS011;23776;51.592;7.180;2022-07-29T11:27:42;8.10;;;5.05;;
37955;SDS011;23776;51.592;7.180;2022-07-29T11:30:09;9.90;;;5.20;;
37955;SDS011;23776;51.592;7.180;2022-07-29T11:32:37;6.60;;;4.00;;
37955;SDS011;23776;51.592;7.180;2022-07-29T11:35:26;9.00;;;3.42;;
37955;SDS011;23776;51.592;7.180;2022-07-29T11:43:49;8.85;;;3.20;;
37955;SDS011;23776;51.592;7.180;2022-07-29T11:46:18;11.85;;;3.63;;
37955;SDS011;23776;51.592;7.180;2022-07-29T11:49:09;7.38;;;2.80;;
37955;SDS011;23776;51.592;7.180;2022-07-29T11:51:38;6.75;;;2.95;;
37955;SDS011;23776;51.592;7.180;2022-07-29T11:54:04;9.52;;;2.83;;
37955;SDS011;23776;51.592;7.180;2022-07-29T11:56:33;3.88;;;2.83;;
37955;SDS011;23776;51.592;7.180;2022-07-29T11:59:04;7.10;;;2.83;;
37955;SDS011;23776;51.592;7.180;2022-07-29T12:01:31;6.25;;;2.10;;
37955;SDS011;23776;51.592;7.180;2022-07-29T12:04:07;10.88;;;2.47;;
37955;SDS011;23776;51.592;7.180;2022-07-29T12:06:33;5.75;;;2.40;;
37955;SDS011;23776;51.592;7.180;2022-07-29T12:08:59;6.00;;;2.63;;
37955;SDS011;23776;51.592;7.180;2022-07-29T12:11:25;7.90;;;2.42;;
37955;SDS011;23776;51.592;7.180;2022-07-29T12:13:52;6.38;;;2.42;;
37955;SDS011;23776;51.592;7.180;2022-07-29T12:16:18;5.90;;;2.20;;
37955;SDS011;23776;51.592;7.180;2022-07-29T12:21:47;4.35;;;2.42;;
37955;SDS011;23776;51.592;7.180;2022-07-29T12:24:13;7.90;;;2.10;;
37955;SDS011;23776;51.592;7.180;2022-07-29T12:26:53;2.90;;;1.75;;
37955;SDS011;23776;51.592;7.180;2022-07-29T12:29:20;4.88;;;2.05;;
37955;SDS011;23776;51.592;7.180;2022-07-29T12:31:48;7.55;;;2.10;;
37955;SDS011;23776;51.592;7.180;2022-07-29T12:34:18;3.92;;;1.70;;
37955;SDS011;23776;51.592;7.180;2022-07-29T12:36:47;5.57;;;2.53;;
37955;SDS011;23776;51.592;7.180;2022-07-29T12:39:14;5.28;;;2.05;;
37955;SDS011;23776;51.592;7.180;2022-07-29T12:41:42;4.88;;;1.95;;
37955;SDS011;23776;51.592;7.180;2022-07-29T12:44:08;4.22;;;1.85;;
37955;SDS011;23776;51.592;7.180;2022-07-29T12:46:33;5.78;;;2.20;;
37955;SDS011;23776;51.592;7.180;2022-07-29T12:48:59;7.53;;;1.85;;
37955;SDS011;23776;51.592;7.180;2022-07-29T12:51:32;11.10;;;2.50;;
37955;SDS011;23776;51.592;7.180;2022-07-29T12:54:11;5.35;;;2.20;;
37955;SDS011;23776;51.592;7.180;2022-07-29T12:56:39;7.88;;;2.55;;
37955;SDS011;23776;51.592;7.180;2022-07-29T12:59:12;5.68;;;2.42;;
37955;SDS011;23776;51.592;7.180;2022-07-29T13:01:43;4.10;;;2.03;;
37955;SDS011;23776;51.592;7.180;2022-07-29T13:04:09;3.15;;;1.73;;
37955;SDS011;23776;51.592;7.180;2022-07-29T13:09:16;5.22;;;1.70;;
37955;SDS011;23776;51.592;7.180;2022-07-29T13:11:47;5.75;;;2.08;;
37955;SDS011;23776;51.592;7.180;2022-07-29T13:14:32;5.22;;;2.17;;
37955;SDS011;23776;51.592;7.180;2022-07-29T13:17:07;3.50;;;1.70;;
37955;SDS011;23776;51.592;7.180;2022-07-29T13:19:38;4.43;;;2.10;;
37955;SDS011;23776;51.592;7.180;2022-07-29T13:22:22;6.53;;;1.92;;
37955;SDS011;23776;51.592;7.180;2022-07-29T13:24:59;6.85;;;2.08;;
37955;SDS011;23776;51.592;7.180;2022-07-29T13:27:31;6.90;;;1.80;;
37955;SDS011;23776;51.592;7.180;2022-07-29T13:29:59;8.30;;;1.88;;
37955;SDS011;23776;51.592;7.180;2022-07-29T13:32:27;4.85;;;2.13;;
37955;SDS011;23776;51.592;7.180;2022-07-29T13:34:58;4.38;;;1.73;;
37955;SDS011;23776;51.592;7.180;2022-07-29T13:37:25;3.80;;;1.73;;
37955;SDS011;23776;51.592;7.180;2022-07-29T13:39:54;5.00;;;2.22;;
37955;SDS011;23776;51.592;7.180;2022-07-29T13:42:21;4.53;;;2.22;;
37955;SDS011;23776;51.592;7.180;2022-07-29T13:44:47;5.28;;;1.50;;
37955;SDS011;23776;51.592;7.180;2022-07-29T13:47:15;5.07;;;1.92;;
37955;SDS011;23776;51.592;7.180;2022-07-29T13:49:41;5.38;;;1.83;;
37955;SDS011;23776;51.592;7.180;2022-07-29T13:52:07;4.35;;;1.45;;
37955;SDS011;23776;51.592;7.180;2022-07-29T13:54:33;4.10;;;1.80;;
37955;SDS011;23776;51.592;7.180;2022-07-29T13:57:02;6.35;;;2.00;;
37955;SDS011;23776;51.592;7.180;2022-07-29T13:59:28;4.10;;;1.63;;
37955;SDS011;23776;51.592;7.180;2022-07-29T14:01:54;8.18;;;3.53;;
37955;SDS011;23776;51.592;7.180;2022-07-29T14:04:19;4.85;;;1.75;;
37955;SDS011;23776;51.592;7.180;2022-07-29T14:06:45;8.32;;;1.80;;
37955;SDS011;23776;51.592;7.180;2022-07-29T14:09:10;2.42;;;1.35;;
37955;SDS011;23776;51.592;7.180;2022-07-29T14:11:36;4.40;;;1.88;;
37955;SDS011;23776;51.592;7.180;2022-07-29T14:14:03;3.33;;;1.90;;
37955;SDS011;23776;51.592;7.180;2022-07-29T14:16:29;7.18;;;2.45;;
37955;SDS011;23776;51.592;7.180;2022-07-29T14:18:55;7.43;;;2.88;;
37955;SDS011;23776;51.592;7.180;2022-07-29T14:21:20;5.72;;;2.42;;
37955;SDS011;23776;51.592;7.180;2022-07-29T14:23:46;9.55;;;2.42;;
37955;SDS011;23776;51.592;7.180;2022-07-29T14:26:12;4.95;;;2.03;;
37955;SDS011;23776;51.592;7.180;2022-07-29T14:28:38;4.57;;;2.22;;
37955;SDS011;23776;51.592;7.180;2022-07-29T14:31:04;7.40;;;2.40;;
37955;SDS011;23776;51.592;7.180;2022-07-29T14:33:29;5.15;;;2.47;;
37955;SDS011;23776;51.592;7.180;2022-07-29T14:35:55;5.32;;;2.38;;
37955;SDS011;23776;51.592;7.180;2022-07-29T14:38:21;4.63;;;2.28;;
37955;SDS011;23776;51.592;7.180;2022-07-29T14:40:46;5.55;;;2.00;;
37955;SDS011;23776;51.592;7.180;2022-07-29T14:43:15;8.57;;;2.40;;
37955;SDS011;23776;51.592;7.180;2022-07-29T14:45:40;6.45;;;2.22;;
37955;SDS011;23776;51.592;7.180;2022-07-29T14:48:06;5.45;;;1.85;;
37955;SDS011;23776;51.592;7.180;2022-07-29T14:50:32;3.70;;;2.00;;
37955;SDS011;23776;51.592;7.180;2022-07-29T14:52:58;7.70;;;2.75;;
37955;SDS011;23776;51.592;7.180;2022-07-29T14:55:24;2.83;;;1.80;;
37955;SDS011;23776;51.592;7.180;2022-07-29T14:57:50;1.98;;;1.70;;
37955;SDS011;23776;51.592;7.180;2022-07-29T15:00:16;5.57;;;2.20;;
37955;SDS011;23776;51.592;7.180;2022-07-29T15:02:42;4.72;;;1.80;;
37955;SDS011;23776;51.592;7.180;2022-07-29T15:05:08;4.95;;;2.00;;
37955;SDS011;23776;51.592;7.180;2022-07-29T15:07:34;5.57;;;2.40;;
37955;SDS011;23776;51.592;7.180;2022-07-29T15:10:00;4.28;;;2.08;;
37955;SDS011;23776;51.592;7.180;2022-07-29T15:12:25;4.85;;;2.08;;
37955;SDS011;23776;51.592;7.180;2022-07-29T15:14:51;4.80;;;2.42;;
37955;SDS011;23776;51.592;7.180;2022-07-29T15:17:16;3.83;;;1.80;;
37955;SDS011;23776;51.592;7.180;2022-07-29T15:19:42;7.45;;;2.35;;
37955;SDS011;23776;51.592;7.180;2022-07-29T15:22:07;4.97;;;2.25;;
37955;SDS011;23776;51.592;7.180;2022-07-29T15:24:33;7.07;;;2.63;;
37955;SDS011;23776;51.592;7.180;2022-07-29T15:26:59;7.80;;;2.67;;
37955;SDS011;23776;51.592;7.180;2022-07-29T15:29:25;5.35;;;2.20;;
37955;SDS011;23776;51.592;7.180;2022-07-29T15:31:50;7.90;;;2.45;;
37955;SDS011;23776;51.592;7.180;2022-07-29T15:34:16;4.43;;;2.90;;
37955;SDS011;23776;51.592;7.180;2022-07-29T15:36:42;5.25;;;2.05;;
37955;SDS011;23776;51.592;7.180;2022-07-29T15:39:07;8.07;;;2.78;;